地図

経路データ

SID SEASON NUMBER BASIN SUBBASIN NAME ISO_TIME NATURE LAT LON WMO_WIND WMO_PRES WMO_AGENCY TRACK_TYPE DIST2LAND LANDFALL IFLAG USA_AGENCY USA_ATCF_ID USA_LAT USA_LON USA_RECORD USA_STATUS USA_WIND USA_PRES USA_SSHS USA_R34_NE USA_R34_SE USA_R34_SW USA_R34_NW USA_R50_NE USA_R50_SE USA_R50_SW USA_R50_NW USA_R64_NE USA_R64_SE USA_R64_SW USA_R64_NW USA_POCI USA_ROCI USA_RMW USA_EYE TOKYO_LAT TOKYO_LON TOKYO_GRADE TOKYO_WIND TOKYO_PRES TOKYO_R50_DIR TOKYO_R50_LONG TOKYO_R50_SHORT TOKYO_R30_DIR TOKYO_R30_LONG TOKYO_R30_SHORT TOKYO_LAND CMA_LAT CMA_LON CMA_CAT CMA_WIND CMA_PRES HKO_LAT HKO_LON HKO_CAT HKO_WIND HKO_PRES NEWDELHI_LAT NEWDELHI_LON NEWDELHI_GRADE NEWDELHI_WIND NEWDELHI_PRES NEWDELHI_CI NEWDELHI_DP NEWDELHI_POCI REUNION_LAT REUNION_LON REUNION_TYPE REUNION_WIND REUNION_PRES REUNION_TNUM REUNION_CI REUNION_RMW REUNION_R34_NE REUNION_R34_SE REUNION_R34_SW REUNION_R34_NW REUNION_R50_NE REUNION_R50_SE REUNION_R50_SW REUNION_R50_NW REUNION_R64_NE REUNION_R64_SE REUNION_R64_SW REUNION_R64_NW BOM_LAT BOM_LON BOM_TYPE BOM_WIND BOM_PRES BOM_TNUM BOM_CI BOM_RMW BOM_R34_NE BOM_R34_SE BOM_R34_SW BOM_R34_NW BOM_R50_NE BOM_R50_SE BOM_R50_SW BOM_R50_NW BOM_R64_NE BOM_R64_SE BOM_R64_SW BOM_R64_NW BOM_ROCI BOM_POCI BOM_EYE BOM_POS_METHOD BOM_PRES_METHOD NADI_LAT NADI_LON NADI_CAT NADI_WIND NADI_PRES WELLINGTON_LAT WELLINGTON_LON WELLINGTON_WIND WELLINGTON_PRES DS824_LAT DS824_LON DS824_STAGE DS824_WIND DS824_PRES TD9636_LAT TD9636_LON TD9636_STAGE TD9636_WIND TD9636_PRES TD9635_LAT TD9635_LON TD9635_WIND TD9635_PRES TD9635_ROCI NEUMANN_LAT NEUMANN_LON NEUMANN_CLASS NEUMANN_WIND NEUMANN_PRES MLC_LAT MLC_LON MLC_CLASS MLC_WIND MLC_PRES USA_GUST BOM_GUST BOM_GUST_PER REUNION_GUST REUNION_GUST_PER USA_SEAHGT USA_SEARAD_NE USA_SEARAD_SE USA_SEARAD_SW USA_SEARAD_NW STORM_SPEED STORM_DIR
2020212N13340 2020 48 NA NA NOT_NAMED 2020-07-29 18:00:00 DS 12.7000 -19.7000 25 1009 hurdat_atl main 314 314 O_____________ hurdat_atl AL102020 12.7000 -19.7000 LO 25 1009 -3 1010 120 25 4 268
2020212N13340 2020 48 NA NA NOT_NAMED 2020-07-29 21:00:00 DS 12.6925 -19.9025 main 336 336 P_____________ AL102020 12.6925 -19.9025 LO 25 1009 -3 1010 120 25 4 270
2020212N13340 2020 48 NA NA NOT_NAMED 2020-07-30 00:00:00 DS 12.7000 -20.1000 25 1009 hurdat_atl main 358 358 O_____________ hurdat_atl AL102020 12.7000 -20.1000 LO 25 1009 -3 1010 120 25 4 277
2020212N13340 2020 48 NA NA NOT_NAMED 2020-07-30 03:00:00 DS 12.7350 -20.2800 main 376 369 P_____________ AL102020 12.7350 -20.2800 LO 25 1009 -3 1010 120 25 3 289
2020212N13340 2020 48 NA NA NOT_NAMED 2020-07-30 06:00:00 DS 12.8000 -20.4000 25 1009 hurdat_atl main 378 372 O_____________ hurdat_atl AL102020 12.8000 -20.4000 LO 25 1009 -3 1010 120 25 2 317
2020212N13340 2020 48 NA NA NOT_NAMED 2020-07-30 09:00:00 DS 12.9000 -20.4375 main 372 366 P_____________ AL102020 12.9000 -20.4375 LO 27 1008 -3 1010 120 25 2 8
2020212N13340 2020 48 NA NA NOT_NAMED 2020-07-30 12:00:00 DS 13.0000 -20.4000 30 1008 hurdat_atl main 366 351 O_____________ hurdat_atl AL102020 13.0000 -20.4000 LO 30 1008 -3 1010 120 25 2 37
2020212N13340 2020 48 NA NA NOT_NAMED 2020-07-30 15:00:00 DS 13.0575 -20.3150 main 351 342 P_____________ AL102020 13.0575 -20.3150 LO 30 1008 -3 1010 120 25 2 63
2020212N13340 2020 48 NA NA NOT_NAMED 2020-07-30 18:00:00 DS 13.1000 -20.2000 30 1008 hurdat_atl main 342 333 O_____________ hurdat_atl AL102020 13.1000 -20.2000 LO 30 1008 -3 1010 120 25 2 73
2020212N13340 2020 48 NA NA NOT_NAMED 2020-07-30 21:00:00 DS 13.1200 -20.1074 main 333 317 P_____________ AL102020 13.1200 -20.1074 LO 30 1008 -3 1011 120 25 2 63
2020212N13340 2020 48 NA NA NOT_NAMED 2020-07-31 00:00:00 DS 13.2000 -20.0000 30 1008 hurdat_atl main 317 297 O_____________ hurdat_atl AL102020 13.2000 -20.0000 LO 30 1008 -3 1012 120 25 4 41
2020212N13340 2020 48 NA NA NOT_NAMED 2020-07-31 03:00:00 DS 13.3975 -19.8575 main 297 262 P_____________ AL102020 13.3975 -19.8575 LO 30 1008 -3 1012 120 25 6 30
2020212N13340 2020 48 NA NA NOT_NAMED 2020-07-31 06:00:00 DS 13.7000 -19.7000 30 1008 hurdat_atl main 262 229 O_____________ hurdat_atl AL102020 13.7000 -19.7000 LO 30 1008 -3 1012 120 25 8 27
2020212N13340 2020 48 NA NA NOT_NAMED 2020-07-31 09:00:00 DS 14.0625 -19.5053 main 225 205 P_____________ AL102020 14.0625 -19.5053 LO 30 1008 -3 1012 120 25 9 20
2020212N13340 2020 48 NA NA NOT_NAMED 2020-07-31 12:00:00 DS 14.5000 -19.4000 30 1008 hurdat_atl main 205 204 O_____________ hurdat_atl AL102020 14.5000 -19.4000 LO 30 1008 -3 1012 120 25 9 2
2020212N13340 2020 48 NA NA NOT_NAMED 2020-07-31 15:00:00 DS 14.9850 -19.4825 main 217 217 P_____________ AL102020 14.9850 -19.4825 LO 30 1008 -3 1011 120 25 10 344
2020212N13340 2020 48 NA NA NOT_NAMED 2020-07-31 18:00:00 TS 15.5000 -19.7000 30 1008 hurdat_atl main 252 252 O_____________ hurdat_atl AL102020 15.5000 -19.7000 TD 30 1008 -1 1011 120 25 40 11 335
2020212N13340 2020 48 NA NA NOT_NAMED 2020-07-31 21:00:00 TS 16.0075 -19.9700 main 305 305 P_____________ AL102020 16.0075 -19.9700 TD 30 1008 -1 1011 120 25 12 330
2020212N13340 2020 48 NA NA NOT_NAMED 2020-08-01 00:00:00 TS 16.5000 -20.3000 30 1008 hurdat_atl main 361 361 O_____________ hurdat_atl AL102020 16.5000 -20.3000 TD 30 1008 -1 1011 120 25 40 12 326
2020212N13340 2020 48 NA NA NOT_NAMED 2020-08-01 03:00:00 TS 16.9574 -20.6352 main 419 419 P_____________ AL102020 16.9574 -20.6352 TD 30 1008 -1 1011 120 25 11 323
2020212N13340 2020 48 NA NA NOT_NAMED 2020-08-01 06:00:00 TS 17.4000 -21.0000 30 1008 hurdat_atl main 480 480 O_____________ hurdat_atl AL102020 17.4000 -21.0000 TD 30 1008 -1 1012 120 25 40 11 323
2020212N13340 2020 48 NA NA NOT_NAMED 2020-08-01 09:00:00 TS 17.8647 -21.3627 main 542 542 P_____________ AL102020 17.8647 -21.3627 TD 27 1008 -1 1013 135 25 12 320
2020212N13340 2020 48 NA NA NOT_NAMED 2020-08-01 12:00:00 TS 18.3000 -21.8000 25 1009 hurdat_atl main 566 566 O_____________ hurdat_atl AL102020 18.3000 -21.8000 TD 25 1009 -1 1014 150 25 35 13 311
2020212N13340 2020 48 NA NA NOT_NAMED 2020-08-01 15:00:00 TS 18.6874 -22.3550 main 602 602 P_____________ AL102020 18.6874 -22.3550 TD 25 1009 -1 1014 150 25 13 302
2020212N13340 2020 48 NA NA NOT_NAMED 2020-08-01 18:00:00 TS 19.0000 -23.0000 25 1009 hurdat_atl main 648 648 O_____________ hurdat_atl AL102020 19.0000 -23.0000 TD 25 1009 -1 1014 150 25 35 14 293
2020212N13340 2020 48 NA NA NOT_NAMED 2020-08-01 21:00:00 TS 19.2255 -23.6898 main 712 712 P_____________ AL102020 19.2255 -23.6898 TD 22 1009 -1 1014 150 25 14 287
2020212N13340 2020 48 NA NA NOT_NAMED 2020-08-02 00:00:00 DS 19.4000 -24.4000 20 1010 hurdat_atl main 778 O_____________ hurdat_atl AL102020 19.4000 -24.4000 LO 20 1010 -3 1014 150 25 30 14 285

IBTrACS Databaseについて

本データベースは、米国NOAAが公開する1842年以降の世界の熱帯低気圧のベストトラックデータアーカイブInternational Best Track Archive for Climate Stewardship (IBTrACS)を、ウェブで閲覧しやすい形式に変換したものです。

最終更新日:2021-12-03